createdAt,value
2018-02-03T00:01:11.434Z,98121.40
2018-02-03T00:03:39.713Z,98117.62
2018-02-03T00:06:07.987Z,98110.96
2018-02-03T00:08:36.242Z,98115.92
2018-02-03T00:11:05.564Z,98109.46
2018-02-03T00:13:33.823Z,98108.78
2018-02-03T00:16:02.104Z,98112.38
2018-02-03T00:18:30.370Z,98108.35
2018-02-03T00:20:58.982Z,98111.55
2018-02-03T00:23:27.204Z,98118.91
2018-02-03T00:25:55.498Z,98117.24
2018-02-03T00:28:23.775Z,98093.35
2018-02-03T00:30:52.088Z,98114.41
2018-02-03T00:33:20.461Z,98112.52
2018-02-03T00:35:48.746Z,98112.81
2018-02-03T00:38:17.068Z,98117.09
2018-02-03T00:40:45.327Z,98112.77
2018-02-03T00:43:13.687Z,98115.17
2018-02-03T00:45:41.912Z,98114.55
2018-02-03T00:48:10.220Z,98114.15
2018-02-03T00:50:38.544Z,98111.14
2018-02-03T00:53:06.817Z,98109.11
2018-02-03T00:55:35.416Z,98107.69
2018-02-03T00:58:03.635Z,98110.00
2018-02-03T01:00:31.929Z,98104.23
2018-02-03T01:03:00.187Z,98108.88
2018-02-03T01:05:28.479Z,98109.02
2018-02-03T01:07:56.802Z,98104.23
2018-02-03T01:10:25.078Z,98105.22
2018-02-03T01:12:53.354Z,98104.89
2018-02-03T01:15:21.630Z,98095.45
2018-02-03T01:17:50.351Z,98105.10
2018-02-03T01:20:18.613Z,98102.70
2018-02-03T01:22:46.862Z,98102.11
2018-02-03T01:25:15.184Z,98100.17
2018-02-03T01:27:43.422Z,98101.48
2018-02-03T01:30:11.767Z,98102.73
2018-02-03T01:32:40.074Z,98103.20
2018-02-03T01:35:08.352Z,98100.81
2018-02-03T01:37:36.610Z,98096.13
2018-02-03T01:40:04.907Z,98072.39
2018-02-03T01:42:33.220Z,98105.78
2018-02-03T01:45:01.494Z,98105.30
2018-02-03T01:47:41.445Z,98107.15
2018-02-03T01:50:09.730Z,98103.47
2018-02-03T01:52:37.994Z,98095.56
2018-02-03T01:55:06.312Z,98090.36
2018-02-03T01:57:34.648Z,98097.20
2018-02-03T02:00:02.895Z,98091.84
2018-02-03T02:02:31.196Z,98089.11
2018-02-03T02:04:59.454Z,98081.20
2018-02-03T02:07:27.759Z,98080.41
2018-02-03T02:09:56.063Z,98080.09
2018-02-03T02:12:24.320Z,98079.50
2018-02-03T02:14:52.656Z,98076.34
2018-02-03T02:17:20.932Z,98073.65
2018-02-03T02:19:49.238Z,98071.11
2018-02-03T02:22:17.486Z,98066.69
2018-02-03T02:24:45.766Z,98071.16
2018-02-03T02:27:14.035Z,98069.38
2018-02-03T02:29:42.306Z,98065.09
2018-02-03T02:32:10.578Z,98063.50
2018-02-03T02:34:39.280Z,98059.31
2018-02-03T02:37:07.555Z,98062.14
2018-02-03T02:39:35.809Z,98053.67
2018-02-03T02:42:05.020Z,98058.47
2018-02-03T02:44:33.283Z,98065.12
2018-02-03T02:47:01.586Z,98071.30
2018-02-03T02:49:30.751Z,98065.53
2018-02-03T02:51:59.052Z,98068.26
2018-02-03T02:54:27.347Z,98072.58
2018-02-03T02:56:56.652Z,98071.80
2018-02-03T02:59:24.959Z,98053.39
2018-02-03T03:01:53.495Z,98068.32
2018-02-03T03:04:21.790Z,98074.70
2018-02-03T03:06:50.080Z,98070.91
2018-02-03T03:09:18.354Z,98070.36
2018-02-03T03:11:46.635Z,98064.48
2018-02-03T03:14:14.935Z,98070.76
2018-02-03T03:16:43.200Z,98070.44
2018-02-03T03:19:11.470Z,98071.27
2018-02-03T03:21:39.751Z,98079.70
2018-02-03T03:24:08.084Z,98081.08
2018-02-03T03:26:36.548Z,98082.96
2018-02-03T03:29:05.450Z,98056.86
2018-02-03T03:31:33.768Z,98079.03
2018-02-03T03:34:02.055Z,98078.75
2018-02-03T03:36:30.355Z,98081.06
2018-02-03T03:38:58.608Z,98076.75
2018-02-03T03:41:26.893Z,98076.72
2018-02-03T03:43:55.146Z,98077.66
2018-02-03T03:46:23.447Z,98073.55
2018-02-03T03:48:51.731Z,98075.45
2018-02-03T03:51:20.002Z,98073.16
2018-02-03T03:53:48.290Z,98075.95
2018-02-03T03:56:16.559Z,98069.66
2018-02-03T03:58:44.839Z,98077.38
2018-02-03T04:01:13.090Z,98072.10
2018-02-03T04:03:41.394Z,98072.05
2018-02-03T04:06:09.672Z,98072.36
2018-02-03T04:08:37.966Z,98079.89
2018-02-03T04:11:06.573Z,98068.14
2018-02-03T04:13:34.824Z,98071.83
2018-02-03T04:16:03.120Z,98071.91
2018-02-03T04:18:31.360Z,98071.44
2018-02-03T04:20:59.648Z,98075.66
2018-02-03T04:23:27.923Z,98067.64
2018-02-03T04:25:56.243Z,98063.17
2018-02-03T04:28:24.488Z,98062.41
2018-02-03T04:30:52.787Z,98051.92
2018-02-03T04:33:21.030Z,98058.79
2018-02-03T04:35:49.365Z,98059.63
2018-02-03T04:38:17.624Z,98062.44
2018-02-03T04:40:45.911Z,98051.16
2018-02-03T04:43:14.192Z,98056.64
2018-02-03T04:45:42.450Z,98055.88
2018-02-03T04:48:10.726Z,98055.27
2018-02-03T04:50:39.024Z,98053.22
2018-02-03T04:53:07.322Z,98056.75
2018-02-03T04:55:35.562Z,98054.21
2018-02-03T04:58:04.812Z,97969.26
2018-02-03T05:00:33.092Z,98049.08
2018-02-03T05:03:01.350Z,98051.08
2018-02-03T05:05:29.622Z,98046.73
2018-02-03T05:07:57.906Z,98050.03
2018-02-03T05:10:26.191Z,98054.94
2018-02-03T05:12:54.455Z,98056.68
2018-02-03T05:15:22.738Z,98051.59
2018-02-03T05:17:50.998Z,98050.36
2018-02-03T05:20:19.274Z,98046.84
2018-02-03T05:22:48.055Z,98048.80
2018-02-03T05:25:16.350Z,98050.31
2018-02-03T05:27:44.650Z,98049.16
2018-02-03T05:30:12.928Z,98049.73
2018-02-03T05:32:41.220Z,98046.33
2018-02-03T05:35:09.468Z,98048.86
2018-02-03T05:37:37.777Z,98045.75
2018-02-03T05:40:06.025Z,98046.69
2018-02-03T05:42:34.338Z,98040.13
2018-02-03T05:45:02.622Z,98052.39
2018-02-03T05:47:30.917Z,98051.52
2018-02-03T05:49:59.207Z,98054.16
2018-02-03T05:52:27.484Z,98056.85
2018-02-03T05:54:55.777Z,98055.48
2018-02-03T05:57:24.078Z,98061.75
2018-02-03T05:59:52.366Z,98061.75
2018-02-03T06:02:20.633Z,98060.01
2018-02-03T06:04:48.926Z,98057.86
2018-02-03T06:07:17.445Z,98060.43
2018-02-03T06:09:45.714Z,98060.88
2018-02-03T06:12:13.984Z,98066.22
2018-02-03T06:14:42.230Z,98064.66
2018-02-03T06:17:10.514Z,98065.27
2018-02-03T06:19:38.784Z,98062.33
2018-02-03T06:22:07.069Z,98061.12
2018-02-03T06:24:35.343Z,98065.42
2018-02-03T06:27:03.650Z,98053.66
2018-02-03T06:29:31.899Z,98057.64
2018-02-03T06:32:00.208Z,98050.05
2018-02-03T06:34:28.469Z,98055.70
2018-02-03T06:36:56.760Z,98058.26
2018-02-03T06:39:25.044Z,98051.69
2018-02-03T06:41:53.299Z,98053.72
2018-02-03T06:44:21.568Z,98046.65
2018-02-03T06:46:49.824Z,98047.22
2018-02-03T06:49:18.158Z,98048.83
2018-02-03T06:51:46.469Z,98056.38
2018-02-03T06:54:14.767Z,98058.22
2018-02-03T06:56:43.031Z,98052.13
2018-02-03T06:59:11.304Z,98054.35
2018-02-03T07:01:39.595Z,98054.30
2018-02-03T07:04:07.859Z,98057.50
2018-02-03T07:06:36.169Z,98059.71
2018-02-03T07:09:05.161Z,98038.95
2018-02-03T07:11:33.468Z,98053.34
2018-02-03T07:14:01.767Z,98057.25
2018-02-03T07:16:30.072Z,98059.95
2018-02-03T07:18:58.365Z,98061.69
2018-02-03T07:21:26.636Z,98055.63
2018-02-03T07:23:55.007Z,98065.42
2018-02-03T07:26:23.274Z,98068.81
2018-02-03T07:28:51.584Z,98077.55
2018-02-03T07:31:19.915Z,98080.19
2018-02-03T07:33:48.204Z,98079.91
2018-02-03T07:36:16.500Z,98082.01
2018-02-03T07:38:44.758Z,98082.52
2018-02-03T07:41:13.049Z,98083.47
2018-02-03T07:43:41.363Z,98086.01
2018-02-03T07:46:09.685Z,98083.90
2018-02-03T07:48:37.955Z,98090.83
2018-02-03T07:51:06.270Z,98093.28
2018-02-03T07:53:34.566Z,98094.88
2018-02-03T07:56:02.834Z,98095.63
2018-02-03T07:58:31.126Z,98090.48
2018-02-03T08:00:59.391Z,98092.77
2018-02-03T08:03:27.674Z,98089.97
2018-02-03T08:05:55.951Z,98090.11
2018-02-03T08:08:34.189Z,98093.73
2018-02-03T08:11:04.509Z,98084.95
2018-02-03T08:13:32.828Z,98089.47
2018-02-03T08:16:01.145Z,98082.34
2018-02-03T08:18:29.471Z,98082.88
2018-02-03T08:20:57.774Z,98087.06
2018-02-03T08:23:26.069Z,98086.28
2018-02-03T08:25:54.339Z,98085.88
2018-02-03T08:28:22.674Z,98086.14
2018-02-03T08:30:50.944Z,98082.66
2018-02-03T08:33:19.258Z,98085.47
2018-02-03T08:35:47.537Z,98085.33
2018-02-03T08:38:15.936Z,98090.33
2018-02-03T08:40:44.197Z,98087.17
2018-02-03T08:43:12.450Z,98088.63
2018-02-03T08:45:40.784Z,98090.99
2018-02-03T08:48:09.038Z,98085.91
2018-02-03T08:50:37.342Z,98088.84
2018-02-03T08:53:05.773Z,98091.86
2018-02-03T08:55:34.118Z,98078.53
2018-02-03T08:58:02.400Z,98089.69
2018-02-03T09:00:30.693Z,98084.20
2018-02-03T09:02:58.998Z,98080.27
2018-02-03T09:05:28.102Z,98079.03
2018-02-03T09:07:56.908Z,98078.77
2018-02-03T09:10:25.207Z,98077.05
2018-02-03T09:12:53.555Z,98100.42
2018-02-03T09:15:21.831Z,98083.03
2018-02-03T09:17:50.800Z,98079.65
2018-02-03T09:20:19.119Z,98086.88
2018-02-03T09:22:47.392Z,98089.23
2018-02-03T09:25:15.725Z,98077.66
2018-02-03T09:27:43.984Z,98092.22
2018-02-03T09:30:12.293Z,98084.67
2018-02-03T09:32:40.560Z,98092.68
2018-02-03T09:35:08.928Z,98088.47
2018-02-03T09:37:37.608Z,98082.31
2018-02-03T09:40:05.933Z,98081.93
2018-02-03T09:42:34.208Z,98083.89
2018-02-03T09:45:02.507Z,98077.11
2018-02-03T09:47:30.822Z,98076.06
2018-02-03T09:49:59.096Z,98067.16
2018-02-03T09:52:27.388Z,98003.17
2018-02-03T09:54:55.662Z,98070.75
2018-02-03T09:57:23.968Z,98074.05
2018-02-03T09:59:52.231Z,98075.18
2018-02-03T10:02:20.538Z,98072.92
2018-02-03T10:04:48.834Z,98067.92
2018-02-03T10:07:17.106Z,98073.95
2018-02-03T10:09:45.450Z,98068.52
2018-02-03T10:12:13.729Z,98078.86
2018-02-03T10:14:42.020Z,98080.47
2018-02-03T10:17:10.287Z,98077.81
2018-02-03T10:19:38.611Z,98074.11
2018-02-03T10:22:07.161Z,98076.54
2018-02-03T10:24:35.528Z,98076.17
2018-02-03T10:27:03.900Z,98076.17
2018-02-03T10:29:32.317Z,98074.03
2018-02-03T10:32:00.591Z,98069.64
2018-02-03T10:34:28.900Z,98072.25
2018-02-03T10:36:57.210Z,98075.59
2018-02-03T10:39:25.487Z,98072.27
2018-02-03T10:41:53.819Z,98047.16
2018-02-03T10:44:22.095Z,98059.53
2018-02-03T10:46:50.383Z,98066.02
2018-02-03T10:49:18.709Z,98059.53
2018-02-03T10:51:47.035Z,98056.97
2018-02-03T10:54:15.423Z,98052.42
2018-02-03T10:56:43.866Z,98052.66
2018-02-03T10:59:12.163Z,98052.31
2018-02-03T11:01:40.682Z,98049.70
2018-02-03T11:04:09.036Z,98052.11
2018-02-03T11:06:37.329Z,98036.02
2018-02-03T11:09:05.658Z,98052.48
2018-02-03T11:11:33.999Z,98049.75
2018-02-03T11:14:02.275Z,98027.20
2018-02-03T11:16:30.587Z,98038.62
2018-02-03T11:18:58.882Z,98043.18
2018-02-03T11:21:27.182Z,98045.77
2018-02-03T11:23:55.490Z,98043.58
2018-02-03T11:26:23.911Z,98039.63
2018-02-03T11:28:52.203Z,97970.95
2018-02-03T11:31:20.459Z,98022.31
2018-02-03T11:33:48.832Z,98041.16
2018-02-03T11:36:17.558Z,98038.95
2018-02-03T11:38:45.881Z,98041.33
2018-02-03T11:41:14.230Z,98034.45
2018-02-03T11:43:42.517Z,98037.75
2018-02-03T11:46:10.791Z,98037.33
2018-02-03T11:48:39.079Z,98037.55
2018-02-03T11:51:07.377Z,98032.17
2018-02-03T11:53:35.645Z,98028.19
2018-02-03T11:56:03.939Z,98027.56
2018-02-03T11:58:32.247Z,98015.91
2018-02-03T12:01:00.857Z,97998.45
2018-02-03T12:03:29.139Z,98026.20
2018-02-03T12:05:57.429Z,98026.66
2018-02-03T12:08:25.710Z,98009.30
2018-02-03T12:10:54.929Z,98013.23
2018-02-03T12:13:23.227Z,98010.38
2018-02-03T12:15:51.535Z,98014.47
2018-02-03T12:18:19.833Z,98004.03
2018-02-03T12:20:48.840Z,98001.75
2018-02-03T12:23:17.193Z,98000.88
2018-02-03T12:25:45.536Z,97980.16
2018-02-03T12:28:13.877Z,97994.38
2018-02-03T12:30:42.243Z,97983.25
2018-02-03T12:33:10.622Z,97991.29
2018-02-03T12:35:39.769Z,97990.02
2018-02-03T12:38:08.031Z,97981.84
2018-02-03T12:40:36.373Z,97977.48
2018-02-03T12:43:05.550Z,97972.64
2018-02-03T12:45:33.874Z,97972.91
2018-02-03T12:48:02.967Z,97972.63
2018-02-03T12:50:31.250Z,97967.06
2018-02-03T12:52:59.623Z,97962.23
2018-02-03T12:55:27.900Z,97962.61
2018-02-03T12:57:56.222Z,97960.92
2018-02-03T13:00:24.510Z,97954.66
2018-02-03T13:02:52.898Z,97955.03
2018-02-03T13:05:21.198Z,97950.91
2018-02-03T13:07:49.496Z,97951.85
2018-02-03T13:10:17.778Z,97949.50
2018-02-03T13:12:46.135Z,97940.92
2018-02-03T13:15:14.474Z,97939.77
2018-02-03T13:17:42.764Z,97940.42
2018-02-03T13:20:11.101Z,97939.88
2018-02-03T13:22:40.558Z,97940.83
2018-02-03T13:25:08.908Z,97940.93
2018-02-03T13:27:38.177Z,97932.12
2018-02-03T13:30:06.508Z,97938.06
2018-02-03T13:32:34.790Z,97936.20
2018-02-03T13:35:03.229Z,97933.45
2018-02-03T13:37:31.569Z,97919.91
2018-02-03T13:39:59.907Z,97922.03
2018-02-03T13:42:28.197Z,97905.30
2018-02-03T13:44:56.516Z,97907.52
2018-02-03T13:47:24.892Z,97915.17
2018-02-03T13:49:53.167Z,97909.75
2018-02-03T13:52:22.320Z,97922.35
2018-02-03T13:54:50.668Z,97920.53
2018-02-03T13:57:19.027Z,97911.77
2018-02-03T13:59:47.287Z,97915.95
2018-02-03T14:02:15.659Z,97906.80
2018-02-03T14:04:43.979Z,97918.06
2018-02-03T14:07:12.283Z,97910.84
2018-02-03T14:09:40.846Z,97912.51
2018-02-03T14:12:09.119Z,97909.90
2018-02-03T14:14:37.543Z,97909.61
2018-02-03T14:17:05.804Z,97906.57
2018-02-03T14:19:34.127Z,97870.44
2018-02-03T14:22:02.369Z,97911.65
2018-02-03T14:24:36.167Z,97907.23
2018-02-03T14:27:05.328Z,97907.45
2018-02-03T14:29:37.204Z,97910.58
2018-02-03T14:32:05.558Z,97909.43
2018-02-03T14:34:33.858Z,97907.95
2018-02-03T14:37:02.135Z,97905.41
2018-02-03T14:39:30.420Z,97907.94
2018-02-03T14:41:58.766Z,97906.66
2018-02-03T14:44:27.044Z,97902.44
2018-02-03T14:46:55.578Z,97905.22
2018-02-03T14:49:23.828Z,97912.34
2018-02-03T14:51:52.188Z,97900.30
2018-02-03T14:54:20.428Z,97899.75
2018-02-03T14:56:48.727Z,97888.05
2018-02-03T14:59:17.008Z,97900.55
2018-02-03T15:01:45.315Z,97897.67
2018-02-03T15:04:13.612Z,97891.92
2018-02-03T15:06:41.876Z,97894.52
2018-02-03T15:09:10.771Z,97898.10
2018-02-03T15:11:39.055Z,97887.72
2018-02-03T15:14:07.342Z,97903.20
2018-02-03T15:16:35.599Z,97901.22
2018-02-03T15:19:03.887Z,97907.49
2018-02-03T15:21:32.205Z,97909.58
2018-02-03T15:24:00.510Z,97899.77
2018-02-03T15:26:28.800Z,97901.97
2018-02-03T15:28:57.127Z,97904.82
2018-02-03T15:31:26.054Z,97910.84
2018-02-03T15:33:54.332Z,97910.45
2018-02-03T15:36:22.623Z,97911.89
2018-02-03T15:38:50.932Z,97921.62
2018-02-03T15:41:19.162Z,97922.56
2018-02-03T15:43:47.479Z,97919.19
2018-02-03T15:46:15.801Z,97919.96
2018-02-03T15:48:44.050Z,97920.58
2018-02-03T15:51:12.343Z,97923.48
2018-02-03T15:53:40.643Z,97920.98
2018-02-03T15:56:08.931Z,97922.67
2018-02-03T15:58:37.202Z,97926.89
2018-02-03T16:01:05.511Z,97925.35
2018-02-03T16:03:34.023Z,97935.53
2018-02-03T16:06:02.334Z,97939.59
2018-02-03T16:08:30.636Z,97941.33
2018-02-03T16:10:58.952Z,97944.94
2018-02-03T16:13:27.276Z,97947.16
2018-02-03T16:15:55.550Z,97945.17
2018-02-03T16:18:23.992Z,97948.69
2018-02-03T16:20:52.293Z,97931.98
2018-02-03T16:23:20.609Z,97944.85
2018-02-03T16:25:48.860Z,97943.30
2018-02-03T16:28:17.204Z,97953.22
2018-02-03T16:30:45.670Z,97951.56
2018-02-03T16:33:13.916Z,97952.77
2018-02-03T16:35:42.227Z,97958.37
2018-02-03T16:38:10.542Z,97961.00
2018-02-03T16:40:38.795Z,97962.95
2018-02-03T16:43:07.054Z,97962.98
2018-02-03T16:45:35.339Z,97969.67
2018-02-03T16:48:03.606Z,97969.95
2018-02-03T16:50:31.921Z,97973.50
2018-02-03T16:53:00.192Z,97977.05
2018-02-03T16:55:28.470Z,97978.85
2018-02-03T16:57:56.786Z,97979.16
2018-02-03T17:00:25.081Z,97974.02
2018-02-03T17:02:53.378Z,97983.06
2018-02-03T17:05:21.642Z,97986.14
2018-02-03T17:07:49.924Z,97979.88
2018-02-03T17:10:19.102Z,97983.94
2018-02-03T17:12:47.392Z,97982.31
2018-02-03T17:15:15.635Z,97988.55
2018-02-03T17:17:44.014Z,97984.45
2018-02-03T17:20:12.339Z,97987.72
2018-02-03T17:22:40.631Z,97992.72
2018-02-03T17:25:08.915Z,98000.81
2018-02-03T17:27:37.242Z,98000.59
2018-02-03T17:30:05.868Z,98007.34
2018-02-03T17:32:34.155Z,97999.62
2018-02-03T17:35:02.465Z,98003.61
2018-02-03T17:37:36.276Z,97998.99
2018-02-03T17:40:05.706Z,98000.60
2018-02-03T17:42:34.015Z,97991.02
2018-02-03T17:45:07.826Z,97999.49
2018-02-03T17:47:36.134Z,98006.89
2018-02-03T17:50:04.382Z,98000.11
2018-02-03T17:52:32.659Z,97998.97
2018-02-03T17:55:00.915Z,98007.75
2018-02-03T17:57:34.771Z,98006.41
2018-02-03T18:00:03.083Z,98011.03
2018-02-03T18:02:31.355Z,98009.56
2018-02-03T18:04:59.646Z,98012.20
2018-02-03T18:07:27.918Z,98016.12
2018-02-03T18:09:56.197Z,98018.94
2018-02-03T18:12:24.544Z,97979.10
2018-02-03T18:14:52.805Z,98021.36
2018-02-03T18:17:21.107Z,98025.11
2018-02-03T18:19:49.395Z,98025.72
2018-02-03T18:22:17.654Z,98030.38
2018-02-03T18:24:45.976Z,98028.99
2018-02-03T18:27:14.244Z,98034.95
2018-02-03T18:29:42.542Z,98032.72
2018-02-03T18:32:10.887Z,98037.17
2018-02-03T18:34:39.165Z,98039.66
2018-02-03T18:37:07.425Z,98042.06
2018-02-03T18:39:35.722Z,98038.38
2018-02-03T18:42:04.358Z,98036.36
2018-02-03T18:44:32.662Z,98032.86
2018-02-03T18:47:00.995Z,98039.80
2018-02-03T18:49:29.274Z,98045.08
2018-02-03T18:51:57.556Z,98042.18
2018-02-03T18:54:25.812Z,98043.47
2018-02-03T18:56:54.128Z,98041.09
2018-02-03T18:59:22.375Z,98040.34
2018-02-03T19:01:50.667Z,98044.16
2018-02-03T19:04:18.948Z,98043.84
2018-02-03T19:06:47.203Z,98048.25
2018-02-03T19:09:15.455Z,98046.99
2018-02-03T19:11:43.816Z,98042.90
2018-02-03T19:14:12.075Z,98044.47
2018-02-03T19:16:40.346Z,98043.14
2018-02-03T19:19:08.652Z,98046.02
2018-02-03T19:21:36.955Z,98051.93
2018-02-03T19:24:05.305Z,98056.36
2018-02-03T19:26:33.595Z,98061.72
2018-02-03T19:29:01.875Z,98064.12
2018-02-03T19:31:30.143Z,98058.13
2018-02-03T19:33:58.474Z,98061.84
2018-02-03T19:36:26.719Z,98061.28
2018-02-03T19:38:55.028Z,98060.82
2018-02-03T19:41:23.342Z,98066.44
2018-02-03T19:43:51.626Z,98066.68
2018-02-03T19:46:20.156Z,98074.18
2018-02-03T19:48:49.567Z,98080.17
2018-02-03T19:51:17.871Z,98067.64
2018-02-03T19:53:46.220Z,98073.52
2018-02-03T19:56:14.525Z,98075.36
2018-02-03T19:58:42.786Z,98076.69
2018-02-03T20:01:11.086Z,98073.53
2018-02-03T20:03:39.365Z,98074.24
2018-02-03T20:06:07.677Z,98070.23
2018-02-03T20:08:35.891Z,98073.73
2018-02-03T20:11:04.548Z,98071.55
2018-02-03T20:13:32.838Z,98070.39
2018-02-03T20:16:01.120Z,98076.59
2018-02-03T20:18:29.390Z,98079.48
2018-02-03T20:20:57.660Z,98081.61
2018-02-03T20:23:25.980Z,98076.94
2018-02-03T20:25:54.266Z,98080.48
2018-02-03T20:28:22.533Z,98080.52
2018-02-03T20:30:50.808Z,98086.50
2018-02-03T20:33:19.096Z,98089.69
2018-02-03T20:35:47.411Z,98091.08
2018-02-03T20:38:15.705Z,98095.30
2018-02-03T20:40:44.012Z,98092.24
2018-02-03T20:43:12.305Z,98088.00
2018-02-03T20:45:40.586Z,98086.81
2018-02-03T20:48:08.883Z,98091.28
2018-02-03T20:50:37.171Z,98087.64
2018-02-03T20:53:05.515Z,98092.47
2018-02-03T20:55:33.800Z,98101.23
2018-02-03T20:58:02.048Z,98094.89
2018-02-03T21:00:30.343Z,98096.31
2018-02-03T21:02:58.602Z,98103.17
2018-02-03T21:05:26.897Z,98105.45
2018-02-03T21:07:55.215Z,98102.66
2018-02-03T21:10:23.472Z,98107.08
2018-02-03T21:12:51.776Z,98102.34
2018-02-03T21:15:20.114Z,98105.16
2018-02-03T21:17:48.361Z,98106.13
2018-02-03T21:20:16.635Z,98110.77
2018-02-03T21:22:44.917Z,98113.28
2018-02-03T21:25:13.187Z,98114.95
2018-02-03T21:27:41.489Z,98120.25
2018-02-03T21:30:09.767Z,98116.32
2018-02-03T21:32:38.030Z,98120.41
2018-02-03T21:35:06.319Z,98120.95
2018-02-03T21:37:34.572Z,98127.28
2018-02-03T21:40:02.883Z,98125.52
2018-02-03T21:42:31.139Z,98128.38
2018-02-03T21:44:59.426Z,98125.66
2018-02-03T21:47:27.674Z,98127.88
2018-02-03T21:49:55.978Z,98131.84
2018-02-03T21:52:24.466Z,98141.55
2018-02-03T21:54:52.752Z,98136.31
2018-02-03T21:57:20.994Z,98144.19
2018-02-03T21:59:49.304Z,98144.19
2018-02-03T22:02:17.639Z,98148.34
2018-02-03T22:04:45.922Z,98152.52
2018-02-03T22:07:14.189Z,98162.25
2018-02-03T22:09:42.478Z,98159.60
2018-02-03T22:12:10.759Z,98157.78
2018-02-03T22:14:39.043Z,98159.28
2018-02-03T22:17:07.372Z,98160.88
2018-02-03T22:19:35.638Z,98165.52
2018-02-03T22:22:04.721Z,98145.00
2018-02-03T22:24:32.990Z,98162.65
2018-02-03T22:27:01.347Z,98169.34
2018-02-03T22:29:29.616Z,98170.76
2018-02-03T22:31:57.875Z,98170.57
2018-02-03T22:34:26.171Z,98170.85
2018-02-03T22:36:54.435Z,98179.23
2018-02-03T22:39:22.767Z,98190.66
2018-02-03T22:41:51.058Z,98182.91
2018-02-03T22:44:19.362Z,98186.91
2018-02-03T22:46:47.701Z,98194.77
2018-02-03T22:49:16.323Z,98187.50
2018-02-03T22:51:44.602Z,98194.34
2018-02-03T22:54:12.931Z,98198.86
2018-02-03T22:56:41.272Z,98201.70
2018-02-03T22:59:09.530Z,98203.17
2018-02-03T23:01:37.818Z,98204.74
2018-02-03T23:04:06.103Z,98212.56
2018-02-03T23:06:34.393Z,98208.77
2018-02-03T23:09:03.908Z,98208.80
2018-02-03T23:11:34.191Z,98215.96
2018-02-03T23:14:02.497Z,98216.97
2018-02-03T23:16:30.815Z,98218.50
2018-02-03T23:18:59.119Z,98230.50
2018-02-03T23:21:28.134Z,98227.48
2018-02-03T23:23:56.403Z,98222.92
2018-02-03T23:26:24.668Z,98223.61
2018-02-03T23:28:52.994Z,98227.11
2018-02-03T23:31:21.239Z,98233.97
2018-02-03T23:33:49.558Z,98235.84
2018-02-03T23:36:17.885Z,98240.75
2018-02-03T23:38:46.163Z,98236.35
2018-02-03T23:41:14.767Z,98236.42
2018-02-03T23:43:43.687Z,98235.88
2018-02-03T23:46:11.998Z,98236.81
2018-02-03T23:48:40.453Z,98241.71
2018-02-03T23:51:08.745Z,98241.46
2018-02-03T23:53:37.040Z,98250.00
2018-02-03T23:56:05.620Z,98251.55
2018-02-03T23:58:33.886Z,98247.80
